sensor_id;sensor_type;location;lat;lon;timestamp;pressure;altitude;pressure_sealevel;temperature;humidity
85023;BME280;75348;43.126;-2.538;2024-01-30T00:01:55;100722.31;;;14.05;64.01
85023;BME280;75348;43.126;-2.538;2024-01-30T00:04:32;100716.41;;;13.84;64.73
85023;BME280;75348;43.126;-2.538;2024-01-30T00:07:22;100750.25;;;14.01;64.66
85023;BME280;75348;43.126;-2.538;2024-01-30T00:09:50;100733.41;;;13.83;64.96
85023;BME280;75348;43.126;-2.538;2024-01-30T00:12:22;100731.44;;;13.85;65.52
85023;BME280;75348;43.126;-2.538;2024-01-30T00:14:49;100743.44;;;13.89;65.13
85023;BME280;75348;43.126;-2.538;2024-01-30T00:17:23;100739.66;;;13.92;65.23
85023;BME280;75348;43.126;-2.538;2024-01-30T00:19:56;100740.41;;;13.84;64.99
85023;BME280;75348;43.126;-2.538;2024-01-30T00:22:24;100725.72;;;13.80;65.61
85023;BME280;75348;43.126;-2.538;2024-01-30T00:25:00;100737.06;;;13.82;65.90
85023;BME280;75348;43.126;-2.538;2024-01-30T00:27:28;100739.59;;;13.84;65.71
85023;BME280;75348;43.126;-2.538;2024-01-30T00:29:55;100751.75;;;13.86;65.54
85023;BME280;75348;43.126;-2.538;2024-01-30T00:32:23;100752.59;;;13.87;65.87
85023;BME280;75348;43.126;-2.538;2024-01-30T00:34:56;100734.69;;;13.79;66.05
85023;BME280;75348;43.126;-2.538;2024-01-30T00:37:29;100772.31;;;13.94;65.61
85023;BME280;75348;43.126;-2.538;2024-01-30T00:39:59;100754.66;;;13.93;65.29
85023;BME280;75348;43.126;-2.538;2024-01-30T00:42:53;100759.50;;;13.80;65.88
85023;BME280;75348;43.126;-2.538;2024-01-30T00:45:51;100758.38;;;13.82;66.30
85023;BME280;75348;43.126;-2.538;2024-01-30T00:48:30;100762.94;;;13.73;66.35
85023;BME280;75348;43.126;-2.538;2024-01-30T00:50:59;100752.97;;;13.75;65.99
85023;BME280;75348;43.126;-2.538;2024-01-30T00:53:28;100767.00;;;13.94;65.53
85023;BME280;75348;43.126;-2.538;2024-01-30T00:56:12;100709.81;;;13.54;66.16
85023;BME280;75348;43.126;-2.538;2024-01-30T00:58:45;100714.75;;;13.66;66.19
85023;BME280;75348;43.126;-2.538;2024-01-30T01:01:14;100735.38;;;13.81;65.65
85023;BME280;75348;43.126;-2.538;2024-01-30T01:03:44;100750.84;;;13.95;65.60
85023;BME280;75348;43.126;-2.538;2024-01-30T01:06:12;100728.81;;;13.59;66.63
85023;BME280;75348;43.126;-2.538;2024-01-30T01:08:46;100744.91;;;13.67;66.17
85023;BME280;75348;43.126;-2.538;2024-01-30T01:11:19;100764.69;;;13.81;66.38
85023;BME280;75348;43.126;-2.538;2024-01-30T01:13:49;100729.53;;;13.78;66.33
85023;BME280;75348;43.126;-2.538;2024-01-30T01:16:22;100753.28;;;13.89;66.43
85023;BME280;75348;43.126;-2.538;2024-01-30T01:18:53;100758.59;;;13.72;67.16
85023;BME280;75348;43.126;-2.538;2024-01-30T01:21:34;100770.41;;;13.86;66.37
85023;BME280;75348;43.126;-2.538;2024-01-30T01:24:03;100780.63;;;13.91;66.31
85023;BME280;75348;43.126;-2.538;2024-01-30T01:26:32;100760.66;;;13.77;66.96
85023;BME280;75348;43.126;-2.538;2024-01-30T01:29:15;100764.75;;;13.72;66.82
85023;BME280;75348;43.126;-2.538;2024-01-30T01:31:45;100769.56;;;13.86;66.31
85023;BME280;75348;43.126;-2.538;2024-01-30T01:34:24;100747.34;;;13.77;66.88
85023;BME280;75348;43.126;-2.538;2024-01-30T01:36:56;100773.22;;;13.68;67.19
85023;BME280;75348;43.126;-2.538;2024-01-30T01:39:30;100717.25;;;13.50;66.74
85023;BME280;75348;43.126;-2.538;2024-01-30T01:42:17;100772.91;;;13.71;67.38
85023;BME280;75348;43.126;-2.538;2024-01-30T01:44:46;100769.09;;;13.56;67.72
85023;BME280;75348;43.126;-2.538;2024-01-30T01:47:15;100769.47;;;13.61;67.47
85023;BME280;75348;43.126;-2.538;2024-01-30T01:49:43;100777.03;;;13.65;67.32
85023;BME280;75348;43.126;-2.538;2024-01-30T01:52:24;100771.16;;;13.62;67.55
85023;BME280;75348;43.126;-2.538;2024-01-30T01:54:52;100767.31;;;13.47;68.11
85023;BME280;75348;43.126;-2.538;2024-01-30T01:57:25;100800.47;;;13.35;68.85
85023;BME280;75348;43.126;-2.538;2024-01-30T01:59:54;100765.53;;;13.38;68.29
85023;BME280;75348;43.126;-2.538;2024-01-30T02:02:35;100763.84;;;13.37;68.72
85023;BME280;75348;43.126;-2.538;2024-01-30T02:05:02;100751.31;;;13.47;68.04
85023;BME280;75348;43.126;-2.538;2024-01-30T02:07:39;100766.44;;;13.73;67.10
85023;BME280;75348;43.126;-2.538;2024-01-30T02:10:09;100759.28;;;13.74;67.00
85023;BME280;75348;43.126;-2.538;2024-01-30T02:12:55;100760.78;;;13.59;66.97
85023;BME280;75348;43.126;-2.538;2024-01-30T02:15:25;100749.13;;;13.42;67.47
85023;BME280;75348;43.126;-2.538;2024-01-30T02:17:54;100775.16;;;13.48;67.89
85023;BME280;75348;43.126;-2.538;2024-01-30T02:20:35;100771.22;;;13.52;68.21
85023;BME280;75348;43.126;-2.538;2024-01-30T02:23:07;100778.75;;;13.57;67.50
85023;BME280;75348;43.126;-2.538;2024-01-30T02:25:43;100782.84;;;13.51;67.94
85023;BME280;75348;43.126;-2.538;2024-01-30T02:28:15;100783.53;;;13.53;67.80
85023;BME280;75348;43.126;-2.538;2024-01-30T02:30:47;100766.88;;;13.69;66.91
85023;BME280;75348;43.126;-2.538;2024-01-30T02:33:15;100764.91;;;13.71;66.06
85023;BME280;75348;43.126;-2.538;2024-01-30T02:35:48;100778.75;;;13.57;67.41
85023;BME280;75348;43.126;-2.538;2024-01-30T02:38:18;100780.84;;;13.53;67.53
85023;BME280;75348;43.126;-2.538;2024-01-30T02:40:49;100751.03;;;13.50;67.67
85023;BME280;75348;43.126;-2.538;2024-01-30T02:43:19;100764.44;;;13.58;67.33
85023;BME280;75348;43.126;-2.538;2024-01-30T02:45:47;100734.75;;;13.53;66.47
85023;BME280;75348;43.126;-2.538;2024-01-30T02:48:21;100769.47;;;13.61;67.85
85023;BME280;75348;43.126;-2.538;2024-01-30T02:50:51;100764.88;;;13.53;67.31
85023;BME280;75348;43.126;-2.538;2024-01-30T02:53:28;100792.56;;;13.43;67.70
85023;BME280;75348;43.126;-2.538;2024-01-30T02:55:59;100761.97;;;13.47;67.37
85023;BME280;75348;43.126;-2.538;2024-01-30T02:58:26;100766.72;;;13.53;67.27
85023;BME280;75348;43.126;-2.538;2024-01-30T03:01:14;100753.50;;;13.34;67.20
85023;BME280;75348;43.126;-2.538;2024-01-30T03:03:55;100761.38;;;13.53;67.42
85023;BME280;75348;43.126;-2.538;2024-01-30T03:06:24;100760.91;;;13.40;67.83
85023;BME280;75348;43.126;-2.538;2024-01-30T03:08:55;100763.84;;;13.37;67.78
85023;BME280;75348;43.126;-2.538;2024-01-30T03:11:24;100773.16;;;13.33;68.25
85023;BME280;75348;43.126;-2.538;2024-01-30T03:14:05;100753.59;;;13.42;67.50
85023;BME280;75348;43.126;-2.538;2024-01-30T03:16:34;100757.06;;;13.52;66.81
85023;BME280;75348;43.126;-2.538;2024-01-30T03:19:09;100767.91;;;13.41;67.53
85023;BME280;75348;43.126;-2.538;2024-01-30T03:21:41;100777.06;;;13.56;66.91
85023;BME280;75348;43.126;-2.538;2024-01-30T03:24:08;100780.66;;;13.64;66.80
85023;BME280;75348;43.126;-2.538;2024-01-30T03:26:36;100769.47;;;13.61;66.25
85023;BME280;75348;43.126;-2.538;2024-01-30T03:29:06;100772.63;;;13.47;66.93
85023;BME280;75348;43.126;-2.538;2024-01-30T03:31:39;100774.56;;;13.28;67.98
85023;BME280;75348;43.126;-2.538;2024-01-30T03:34:09;100787.94;;;13.45;67.84
85023;BME280;75348;43.126;-2.538;2024-01-30T03:36:39;100794.59;;;13.58;66.83
85023;BME280;75348;43.126;-2.538;2024-01-30T03:39:07;100791.38;;;13.55;67.54
85023;BME280;75348;43.126;-2.538;2024-01-30T03:41:47;100811.72;;;13.56;67.25
85023;BME280;75348;43.126;-2.538;2024-01-30T03:44:15;100781.09;;;13.42;67.08
85023;BME280;75348;43.126;-2.538;2024-01-30T03:46:48;100796.22;;;13.42;67.66
85023;BME280;75348;43.126;-2.538;2024-01-30T03:49:17;100781.81;;;13.35;67.76
85023;BME280;75348;43.126;-2.538;2024-01-30T03:51:45;100792.31;;;13.36;67.88
85023;BME280;75348;43.126;-2.538;2024-01-30T03:54:35;100785.00;;;13.65;66.41
85023;BME280;75348;43.126;-2.538;2024-01-30T03:57:07;100789.91;;;13.70;66.44
85023;BME280;75348;43.126;-2.538;2024-01-30T03:59:34;100795.53;;;13.67;66.14
85023;BME280;75348;43.126;-2.538;2024-01-30T04:02:02;100791.69;;;13.52;66.84
85023;BME280;75348;43.126;-2.538;2024-01-30T04:04:34;100786.66;;;13.49;67.13
85023;BME280;75348;43.126;-2.538;2024-01-30T04:07:05;100801.81;;;13.39;67.81
85023;BME280;75348;43.126;-2.538;2024-01-30T04:09:45;100803.28;;;13.33;68.15
85023;BME280;75348;43.126;-2.538;2024-01-30T04:12:13;100792.28;;;13.46;67.25
85023;BME280;75348;43.126;-2.538;2024-01-30T04:14:41;100805.69;;;13.54;67.37
85023;BME280;75348;43.126;-2.538;2024-01-30T04:17:14;100793.84;;;13.39;68.28
85023;BME280;75348;43.126;-2.538;2024-01-30T04:19:43;100801.44;;;13.34;68.36
85023;BME280;75348;43.126;-2.538;2024-01-30T04:22:14;100796.66;;;13.37;67.55
85023;BME280;75348;43.126;-2.538;2024-01-30T04:24:45;100783.69;;;13.25;67.81
85023;BME280;75348;43.126;-2.538;2024-01-30T04:27:13;100793.34;;;13.26;68.52
85023;BME280;75348;43.126;-2.538;2024-01-30T04:29:45;100795.44;;;13.32;68.86
85023;BME280;75348;43.126;-2.538;2024-01-30T04:32:14;100811.59;;;13.48;67.83
85023;BME280;75348;43.126;-2.538;2024-01-30T04:34:41;100794.16;;;13.36;67.84
85023;BME280;75348;43.126;-2.538;2024-01-30T04:37:12;100800.75;;;13.32;67.74
85023;BME280;75348;43.126;-2.538;2024-01-30T04:39:39;100790.28;;;13.21;68.31
85023;BME280;75348;43.126;-2.538;2024-01-30T04:42:12;100753.53;;;12.98;68.71
85023;BME280;75348;43.126;-2.538;2024-01-30T04:44:41;100746.88;;;12.85;68.64
85023;BME280;75348;43.126;-2.538;2024-01-30T04:47:11;100798.28;;;13.21;68.23
85023;BME280;75348;43.126;-2.538;2024-01-30T04:49:40;100807.50;;;13.27;68.70
85023;BME280;75348;43.126;-2.538;2024-01-30T04:52:16;100810.72;;;13.30;68.30
85023;BME280;75348;43.126;-2.538;2024-01-30T04:54:43;100807.19;;;13.30;68.35
85023;BME280;75348;43.126;-2.538;2024-01-30T04:57:12;100804.81;;;13.36;68.88
85023;BME280;75348;43.126;-2.538;2024-01-30T04:59:46;100806.66;;;13.26;68.12
85023;BME280;75348;43.126;-2.538;2024-01-30T05:02:21;100802.78;;;13.21;68.66
85023;BME280;75348;43.126;-2.538;2024-01-30T05:04:51;100801.50;;;13.15;68.84
85023;BME280;75348;43.126;-2.538;2024-01-30T05:07:24;100806.22;;;13.31;67.94
85023;BME280;75348;43.126;-2.538;2024-01-30T05:10:00;100819.00;;;13.27;68.03
85023;BME280;75348;43.126;-2.538;2024-01-30T05:12:31;100813.00;;;13.25;68.13
85023;BME280;75348;43.126;-2.538;2024-01-30T05:15:04;100822.91;;;13.23;68.68
85023;BME280;75348;43.126;-2.538;2024-01-30T05:17:36;100799.31;;;13.11;68.41
85023;BME280;75348;43.126;-2.538;2024-01-30T05:20:05;100821.19;;;13.05;68.66
85023;BME280;75348;43.126;-2.538;2024-01-30T05:22:32;100830.78;;;13.15;68.54
85023;BME280;75348;43.126;-2.538;2024-01-30T05:25:01;100819.50;;;13.04;68.51
85023;BME280;75348;43.126;-2.538;2024-01-30T05:27:28;100830.28;;;13.02;68.71
85023;BME280;75348;43.126;-2.538;2024-01-30T05:29:55;100825.25;;;12.99;69.18
85023;BME280;75348;43.126;-2.538;2024-01-30T05:32:24;100832.81;;;12.94;69.04
85023;BME280;75348;43.126;-2.538;2024-01-30T05:34:55;100821.91;;;12.88;69.44
85023;BME280;75348;43.126;-2.538;2024-01-30T05:37:36;100810.28;;;12.80;69.65
85023;BME280;75348;43.126;-2.538;2024-01-30T05:40:06;100844.75;;;12.90;69.48
85023;BME280;75348;43.126;-2.538;2024-01-30T05:42:40;100834.25;;;12.89;69.90
85023;BME280;75348;43.126;-2.538;2024-01-30T05:45:34;100854.72;;;12.51;70.55
85023;BME280;75348;43.126;-2.538;2024-01-30T05:48:20;100853.00;;;12.69;70.09
85023;BME280;75348;43.126;-2.538;2024-01-30T05:50:49;100850.63;;;12.85;69.54
85023;BME280;75348;43.126;-2.538;2024-01-30T05:53:24;100855.41;;;12.62;70.17
85023;BME280;75348;43.126;-2.538;2024-01-30T05:55:53;100861.97;;;12.49;70.80
85023;BME280;75348;43.126;-2.538;2024-01-30T05:58:20;100857.94;;;12.45;70.88
85023;BME280;75348;43.126;-2.538;2024-01-30T06:00:53;100855.13;;;12.46;70.37
85023;BME280;75348;43.126;-2.538;2024-01-30T06:03:22;100868.69;;;12.34;71.39
85023;BME280;75348;43.126;-2.538;2024-01-30T06:06:08;100864.78;;;12.38;71.10
85023;BME280;75348;43.126;-2.538;2024-01-30T06:08:37;100883.38;;;12.38;71.40
85023;BME280;75348;43.126;-2.538;2024-01-30T06:11:05;100865.63;;;12.20;71.62
85023;BME280;75348;43.126;-2.538;2024-01-30T06:13:39;100891.38;;;12.47;71.15
85023;BME280;75348;43.126;-2.538;2024-01-30T06:16:10;100877.94;;;12.11;71.89
85023;BME280;75348;43.126;-2.538;2024-01-30T06:18:41;100871.19;;;12.07;72.80
85023;BME280;75348;43.126;-2.538;2024-01-30T06:21:16;100874.53;;;12.09;72.37
85023;BME280;75348;43.126;-2.538;2024-01-30T06:23:46;100879.03;;;12.18;72.10
85023;BME280;75348;43.126;-2.538;2024-01-30T06:26:21;100873.19;;;12.43;71.57
85023;BME280;75348;43.126;-2.538;2024-01-30T06:28:54;100860.84;;;12.23;72.02
85023;BME280;75348;43.126;-2.538;2024-01-30T06:31:22;100856.09;;;12.17;71.49
85023;BME280;75348;43.126;-2.538;2024-01-30T06:33:53;100856.97;;;12.27;71.21
85023;BME280;75348;43.126;-2.538;2024-01-30T06:36:20;100871.47;;;12.14;71.54
85023;BME280;75348;43.126;-2.538;2024-01-30T06:38:47;100879.44;;;12.04;72.90
85023;BME280;75348;43.126;-2.538;2024-01-30T06:41:16;100886.91;;;11.71;73.33
85023;BME280;75348;43.126;-2.538;2024-01-30T06:43:45;100895.66;;;11.62;73.49
85023;BME280;75348;43.126;-2.538;2024-01-30T06:46:13;100895.94;;;11.09;76.15
85023;BME280;75348;43.126;-2.538;2024-01-30T06:48:40;100897.44;;;11.32;75.55
85023;BME280;75348;43.126;-2.538;2024-01-30T06:51:10;100879.59;;;11.34;75.96
85023;BME280;75348;43.126;-2.538;2024-01-30T06:53:43;100899.31;;;11.41;75.12
85023;BME280;75348;43.126;-2.538;2024-01-30T06:56:17;100891.25;;;11.72;73.35
85023;BME280;75348;43.126;-2.538;2024-01-30T06:59:00;100889.63;;;11.99;72.94
85023;BME280;75348;43.126;-2.538;2024-01-30T07:01:29;100904.91;;;11.68;74.29
85023;BME280;75348;43.126;-2.538;2024-01-30T07:04:06;100905.34;;;11.43;74.55
85023;BME280;75348;43.126;-2.538;2024-01-30T07:06:35;100918.69;;;11.32;75.73
85023;BME280;75348;43.126;-2.538;2024-01-30T07:09:06;100912.94;;;11.27;75.94
85023;BME280;75348;43.126;-2.538;2024-01-30T07:11:38;100891.31;;;11.32;75.51
85023;BME280;75348;43.126;-2.538;2024-01-30T07:14:09;100911.41;;;11.54;74.82
85023;BME280;75348;43.126;-2.538;2024-01-30T07:16:39;100920.94;;;11.57;75.08
85023;BME280;75348;43.126;-2.538;2024-01-30T07:19:09;100910.22;;;11.18;75.36
85023;BME280;75348;43.126;-2.538;2024-01-30T07:21:36;100921.03;;;11.46;75.08
85023;BME280;75348;43.126;-2.538;2024-01-30T07:24:10;100924.44;;;11.37;74.50
85023;BME280;75348;43.126;-2.538;2024-01-30T07:26:44;100940.00;;;11.71;73.73
85023;BME280;75348;43.126;-2.538;2024-01-30T07:29:16;100934.78;;;11.40;75.09
85023;BME280;75348;43.126;-2.538;2024-01-30T07:32:11;100936.13;;;11.25;75.71
85023;BME280;75348;43.126;-2.538;2024-01-30T07:34:39;100936.25;;;11.74;74.69
85023;BME280;75348;43.126;-2.538;2024-01-30T07:37:24;100950.16;;;11.16;76.44
85023;BME280;75348;43.126;-2.538;2024-01-30T07:39:55;100950.88;;;10.98;76.52
85023;BME280;75348;43.126;-2.538;2024-01-30T07:42:23;100955.41;;;11.07;76.07
85023;BME280;75348;43.126;-2.538;2024-01-30T07:44:56;100955.91;;;11.21;75.87
85023;BME280;75348;43.126;-2.538;2024-01-30T07:47:29;100915.34;;;10.90;77.88
85023;BME280;75348;43.126;-2.538;2024-01-30T07:49:59;100946.66;;;10.96;76.86
85023;BME280;75348;43.126;-2.538;2024-01-30T07:52:38;100958.09;;;10.76;77.40
85023;BME280;75348;43.126;-2.538;2024-01-30T07:55:20;100968.66;;;10.03;79.57
85023;BME280;75348;43.126;-2.538;2024-01-30T07:57:57;100939.50;;;9.81;80.39
85023;BME280;75348;43.126;-2.538;2024-01-30T08:00:26;100936.97;;;9.90;80.37
85023;BME280;75348;43.126;-2.538;2024-01-30T08:02:55;100964.00;;;10.37;79.78
85023;BME280;75348;43.126;-2.538;2024-01-30T08:05:25;100961.47;;;10.78;78.45
85023;BME280;75348;43.126;-2.538;2024-01-30T08:07:55;100970.41;;;10.66;78.19
85023;BME280;75348;43.126;-2.538;2024-01-30T08:10:23;100964.66;;;10.61;79.29
85023;BME280;75348;43.126;-2.538;2024-01-30T08:12:58;100975.97;;;10.32;80.33
85023;BME280;75348;43.126;-2.538;2024-01-30T08:15:25;100969.59;;;10.97;77.82
85023;BME280;75348;43.126;-2.538;2024-01-30T08:17:52;100941.78;;;10.80;77.48
85023;BME280;75348;43.126;-2.538;2024-01-30T08:20:35;100968.59;;;11.38;75.53
85023;BME280;75348;43.126;-2.538;2024-01-30T08:23:10;100973.50;;;10.82;77.22
85023;BME280;75348;43.126;-2.538;2024-01-30T08:25:37;100990.00;;;10.85;77.84
85023;BME280;75348;43.126;-2.538;2024-01-30T08:28:09;100966.09;;;12.26;72.34
85023;BME280;75348;43.126;-2.538;2024-01-30T08:30:36;100978.53;;;11.86;73.32
85023;BME280;75348;43.126;-2.538;2024-01-30T08:33:18;100974.91;;;12.36;71.54
85023;BME280;75348;43.126;-2.538;2024-01-30T08:35:52;100981.09;;;12.55;71.37
85023;BME280;75348;43.126;-2.538;2024-01-30T08:38:26;100955.66;;;12.99;68.09
85023;BME280;75348;43.126;-2.538;2024-01-30T08:40:54;100970.91;;;13.35;68.35
85023;BME280;75348;43.126;-2.538;2024-01-30T08:43:24;100986.31;;;13.32;67.54
85023;BME280;75348;43.126;-2.538;2024-01-30T08:46:03;100979.97;;;13.87;65.80
85023;BME280;75348;43.126;-2.538;2024-01-30T08:48:36;100981.34;;;13.65;67.23
85023;BME280;75348;43.126;-2.538;2024-01-30T08:51:05;100966.22;;;14.28;64.40
85023;BME280;75348;43.126;-2.538;2024-01-30T08:53:35;101004.47;;;14.00;65.14
85023;BME280;75348;43.126;-2.538;2024-01-30T08:56:07;100951.84;;;14.73;62.23
85023;BME280;75348;43.126;-2.538;2024-01-30T08:58:35;100973.19;;;14.90;62.38
85023;BME280;75348;43.126;-2.538;2024-01-30T09:01:08;100983.19;;;15.06;62.10
85023;BME280;75348;43.126;-2.538;2024-01-30T09:03:36;100984.69;;;14.39;64.60
85023;BME280;75348;43.126;-2.538;2024-01-30T09:06:41;100970.16;;;14.85;62.43
85023;BME280;75348;43.126;-2.538;2024-01-30T09:09:17;100977.94;;;15.31;61.87
85023;BME280;75348;43.126;-2.538;2024-01-30T09:11:49;100965.91;;;15.27;60.57
85023;BME280;75348;43.126;-2.538;2024-01-30T09:14:16;100979.63;;;14.97;62.67
85023;BME280;75348;43.126;-2.538;2024-01-30T09:16:50;100980.88;;;15.70;59.78
85023;BME280;75348;43.126;-2.538;2024-01-30T09:19:19;100987.50;;;16.17;58.12
85023;BME280;75348;43.126;-2.538;2024-01-30T09:21:57;100982.53;;;15.21;61.97
85023;BME280;75348;43.126;-2.538;2024-01-30T09:24:28;100986.66;;;16.57;58.33
85023;BME280;75348;43.126;-2.538;2024-01-30T09:26:55;100963.97;;;17.56;54.70
85023;BME280;75348;43.126;-2.538;2024-01-30T09:29:23;100971.72;;;17.28;55.72
85023;BME280;75348;43.126;-2.538;2024-01-30T09:31:50;100999.69;;;17.33;54.46
85023;BME280;75348;43.126;-2.538;2024-01-30T09:34:19;100986.06;;;16.87;56.68
85023;BME280;75348;43.126;-2.538;2024-01-30T09:36:51;100980.44;;;17.38;54.88
85023;BME280;75348;43.126;-2.538;2024-01-30T09:39:32;100991.44;;;17.66;54.40
85023;BME280;75348;43.126;-2.538;2024-01-30T09:44:54;100962.78;;;16.95;53.74
85023;BME280;75348;43.126;-2.538;2024-01-30T09:47:21;100973.06;;;17.24;54.73
85023;BME280;75348;43.126;-2.538;2024-01-30T09:50:03;100974.38;;;16.96;55.38
85023;BME280;75348;43.126;-2.538;2024-01-30T09:52:31;100976.00;;;17.84;52.66
85023;BME280;75348;43.126;-2.538;2024-01-30T09:55:02;100989.69;;;18.13;53.33
85023;BME280;75348;43.126;-2.538;2024-01-30T09:57:35;100967.50;;;18.19;51.14
85023;BME280;75348;43.126;-2.538;2024-01-30T10:00:04;100991.47;;;17.42;53.63
85023;BME280;75348;43.126;-2.538;2024-01-30T10:02:39;100993.16;;;17.36;53.48
85023;BME280;75348;43.126;-2.538;2024-01-30T10:05:10;100953.28;;;17.48;53.28
85023;BME280;75348;43.126;-2.538;2024-01-30T10:07:53;100990.34;;;18.07;51.74
85023;BME280;75348;43.126;-2.538;2024-01-30T10:10:24;100961.31;;;17.17;54.02
85023;BME280;75348;43.126;-2.538;2024-01-30T10:12:58;100969.81;;;16.81;55.41
85023;BME280;75348;43.126;-2.538;2024-01-30T10:15:39;100990.81;;;17.25;53.82
85023;BME280;75348;43.126;-2.538;2024-01-30T10:18:22;100984.47;;;17.34;54.30
85023;BME280;75348;43.126;-2.538;2024-01-30T10:20:51;100985.28;;;17.50;53.02
85023;BME280;75348;43.126;-2.538;2024-01-30T10:23:18;100978.13;;;17.96;51.33
85023;BME280;75348;43.126;-2.538;2024-01-30T10:25:50;100991.78;;;17.16;54.07
85023;BME280;75348;43.126;-2.538;2024-01-30T10:28:18;100996.00;;;17.34;53.85
85023;BME280;75348;43.126;-2.538;2024-01-30T10:30:56;100986.41;;;17.71;53.52
85023;BME280;75348;43.126;-2.538;2024-01-30T10:33:59;101001.88;;;17.30;53.70
85023;BME280;75348;43.126;-2.538;2024-01-30T10:36:46;101000.47;;;17.02;54.14
85023;BME280;75348;43.126;-2.538;2024-01-30T10:39:17;100994.66;;;17.46;53.96
85023;BME280;75348;43.126;-2.538;2024-01-30T10:42:04;100973.44;;;17.98;51.86
85023;BME280;75348;43.126;-2.538;2024-01-30T10:47:54;100973.84;;;18.33;50.93
85023;BME280;75348;43.126;-2.538;2024-01-30T10:50:50;100975.53;;;18.27;51.16
85023;BME280;75348;43.126;-2.538;2024-01-30T10:53:31;100966.47;;;17.66;52.43
85023;BME280;75348;43.126;-2.538;2024-01-30T10:56:12;100961.44;;;18.25;50.95
85023;BME280;75348;43.126;-2.538;2024-01-30T10:58:41;100957.56;;;18.35;50.89
85023;BME280;75348;43.126;-2.538;2024-01-30T11:01:21;100970.34;;;18.85;49.46
85023;BME280;75348;43.126;-2.538;2024-01-30T11:03:54;100959.84;;;18.16;51.59
85023;BME280;75348;43.126;-2.538;2024-01-30T11:06:30;100958.63;;;18.10;50.66
85023;BME280;75348;43.126;-2.538;2024-01-30T11:09:02;100961.47;;;18.09;51.76
85023;BME280;75348;43.126;-2.538;2024-01-30T11:14:16;100950.31;;;18.35;51.91
85023;BME280;75348;43.126;-2.538;2024-01-30T11:16:49;100953.84;;;17.90;51.51
85023;BME280;75348;43.126;-2.538;2024-01-30T11:19:22;100951.63;;;18.47;50.61
85023;BME280;75348;43.126;-2.538;2024-01-30T11:21:52;100948.53;;;18.58;50.90
85023;BME280;75348;43.126;-2.538;2024-01-30T11:24:29;100931.66;;;18.42;50.70
85023;BME280;75348;43.126;-2.538;2024-01-30T11:26:56;100935.47;;;18.55;50.48
85023;BME280;75348;43.126;-2.538;2024-01-30T11:30:04;100929.34;;;18.61;51.31
85023;BME280;75348;43.126;-2.538;2024-01-30T11:32:41;100925.97;;;18.89;50.16
85023;BME280;75348;43.126;-2.538;2024-01-30T11:35:15;100937.06;;;18.86;49.78
85023;BME280;75348;43.126;-2.538;2024-01-30T11:38:03;100929.56;;;18.82;50.86
85023;BME280;75348;43.126;-2.538;2024-01-30T11:40:34;100917.00;;;18.52;50.67
85023;BME280;75348;43.126;-2.538;2024-01-30T11:43:10;100924.03;;;18.53;50.55
85023;BME280;75348;43.126;-2.538;2024-01-30T11:45:37;100910.63;;;18.98;49.89
85023;BME280;75348;43.126;-2.538;2024-01-30T11:48:34;100909.19;;;18.65;50.34
85023;BME280;75348;43.126;-2.538;2024-01-30T11:51:01;100897.09;;;19.14;49.46
85023;BME280;75348;43.126;-2.538;2024-01-30T11:53:36;100903.41;;;18.76;50.13
85023;BME280;75348;43.126;-2.538;2024-01-30T11:56:09;100911.75;;;18.81;49.95
85023;BME280;75348;43.126;-2.538;2024-01-30T11:58:43;100912.81;;;18.72;50.25
85023;BME280;75348;43.126;-2.538;2024-01-30T12:01:13;100911.06;;;19.09;49.38
85023;BME280;75348;43.126;-2.538;2024-01-30T12:03:55;100906.16;;;18.90;49.58
85023;BME280;75348;43.126;-2.538;2024-01-30T12:06:25;100888.22;;;18.83;49.42
85023;BME280;75348;43.126;-2.538;2024-01-30T12:09:03;100891.69;;;19.14;49.10
85023;BME280;75348;43.126;-2.538;2024-01-30T12:11:53;100890.84;;;18.91;49.42
85023;BME280;75348;43.126;-2.538;2024-01-30T12:14:22;100878.75;;;19.31;48.58
85023;BME280;75348;43.126;-2.538;2024-01-30T12:16:51;100881.34;;;19.39;48.34
85023;BME280;75348;43.126;-2.538;2024-01-30T12:19:23;100885.53;;;19.42;48.17
85023;BME280;75348;43.126;-2.538;2024-01-30T12:21:54;100893.03;;;19.46;48.27
85023;BME280;75348;43.126;-2.538;2024-01-30T12:24:28;100896.81;;;19.88;47.51
85023;BME280;75348;43.126;-2.538;2024-01-30T12:27:04;100895.97;;;19.22;48.37
85023;BME280;75348;43.126;-2.538;2024-01-30T12:29:43;100886.00;;;19.74;47.31
85023;BME280;75348;43.126;-2.538;2024-01-30T12:32:17;100874.25;;;19.89;47.16
85023;BME280;75348;43.126;-2.538;2024-01-30T12:34:50;100857.69;;;19.35;48.00
85023;BME280;75348;43.126;-2.538;2024-01-30T12:37:30;100864.75;;;19.79;47.33
85023;BME280;75348;43.126;-2.538;2024-01-30T12:40:12;100860.03;;;19.95;47.16
85023;BME280;75348;43.126;-2.538;2024-01-30T12:42:46;100875.25;;;19.60;47.34
85023;BME280;75348;43.126;-2.538;2024-01-30T12:45:19;100863.94;;;19.64;47.99
85023;BME280;75348;43.126;-2.538;2024-01-30T12:47:53;100876.53;;;19.78;48.31
85023;BME280;75348;43.126;-2.538;2024-01-30T12:50:21;100872.94;;;20.00;47.13
85023;BME280;75348;43.126;-2.538;2024-01-30T12:52:51;100858.56;;;19.64;49.00
85023;BME280;75348;43.126;-2.538;2024-01-30T12:55:20;100866.81;;;19.91;47.90
85023;BME280;75348;43.126;-2.538;2024-01-30T12:57:49;100864.94;;;19.92;48.04
85023;BME280;75348;43.126;-2.538;2024-01-30T13:00:18;100840.56;;;19.50;48.03
85023;BME280;75348;43.126;-2.538;2024-01-30T13:02:51;100861.34;;;19.85;47.87
85023;BME280;75348;43.126;-2.538;2024-01-30T13:05:21;100863.84;;;19.72;47.63
85023;BME280;75348;43.126;-2.538;2024-01-30T13:08:04;100861.97;;;19.44;47.85
85023;BME280;75348;43.126;-2.538;2024-01-30T13:10:42;100859.53;;;19.20;48.06
85023;BME280;75348;43.126;-2.538;2024-01-30T13:13:15;100851.50;;;19.92;46.88
85023;BME280;75348;43.126;-2.538;2024-01-30T13:15:54;100861.16;;;19.86;47.38
85023;BME280;75348;43.126;-2.538;2024-01-30T13:18:28;100857.03;;;19.76;47.15
85023;BME280;75348;43.126;-2.538;2024-01-30T13:20:55;100849.41;;;20.43;46.22